sensor_id;sensor_type;location;lat;lon;timestamp;temperature;humidity
67641;SHT31;54434;50.096;20.082;2022-12-24T00:01:54;4.41;85.11
67641;SHT31;54434;50.096;20.082;2022-12-24T00:04:31;4.40;84.95
67641;SHT31;54434;50.096;20.082;2022-12-24T00:07:07;4.41;85.06
67641;SHT31;54434;50.096;20.082;2022-12-24T00:09:44;4.44;85.26
67641;SHT31;54434;50.096;20.082;2022-12-24T00:12:20;4.46;85.50
67641;SHT31;54434;50.096;20.082;2022-12-24T00:14:57;4.44;85.55
67641;SHT31;54434;50.096;20.082;2022-12-24T00:17:33;4.41;85.49
67641;SHT31;54434;50.096;20.082;2022-12-24T00:20:10;4.38;85.81
67641;SHT31;54434;50.096;20.082;2022-12-24T00:22:47;4.36;85.91
67641;SHT31;54434;50.096;20.082;2022-12-24T00:25:23;4.34;85.93
67641;SHT31;54434;50.096;20.082;2022-12-24T00:28:00;4.32;86.04
67641;SHT31;54434;50.096;20.082;2022-12-24T00:30:37;4.33;86.14
67641;SHT31;54434;50.096;20.082;2022-12-24T00:33:15;4.33;86.09
67641;SHT31;54434;50.096;20.082;2022-12-24T00:35:58;4.36;86.07
67641;SHT31;54434;50.096;20.082;2022-12-24T00:38:36;4.36;85.93
67641;SHT31;54434;50.096;20.082;2022-12-24T00:41:14;4.36;86.03
67641;SHT31;54434;50.096;20.082;2022-12-24T00:43:59;4.39;85.96
67641;SHT31;54434;50.096;20.082;2022-12-24T00:46:41;4.38;85.75
67641;SHT31;54434;50.096;20.082;2022-12-24T00:49:17;4.39;85.63
67641;SHT31;54434;50.096;20.082;2022-12-24T00:51:57;4.40;85.78
67641;SHT31;54434;50.096;20.082;2022-12-24T00:54:37;4.38;85.50
67641;SHT31;54434;50.096;20.082;2022-12-24T00:57:22;4.34;85.82
67641;SHT31;54434;50.096;20.082;2022-12-24T00:59:59;4.34;85.97
67641;SHT31;54434;50.096;20.082;2022-12-24T01:02:36;4.32;86.00
67641;SHT31;54434;50.096;20.082;2022-12-24T01:05:16;4.30;86.03
67641;SHT31;54434;50.096;20.082;2022-12-24T01:07:53;4.30;86.02
67641;SHT31;54434;50.096;20.082;2022-12-24T01:10:30;4.35;86.12
67641;SHT31;54434;50.096;20.082;2022-12-24T01:13:07;4.39;86.00
67641;SHT31;54434;50.096;20.082;2022-12-24T01:15:43;4.37;85.80
67641;SHT31;54434;50.096;20.082;2022-12-24T01:18:26;4.36;85.75
67641;SHT31;54434;50.096;20.082;2022-12-24T01:21:03;4.38;85.83
67641;SHT31;54434;50.096;20.082;2022-12-24T01:23:42;4.36;85.65
67641;SHT31;54434;50.096;20.082;2022-12-24T01:26:19;4.37;85.59
67641;SHT31;54434;50.096;20.082;2022-12-24T01:28:56;4.31;85.43
67641;SHT31;54434;50.096;20.082;2022-12-24T01:31:33;4.25;85.54
67641;SHT31;54434;50.096;20.082;2022-12-24T01:34:10;4.23;85.54
67641;SHT31;54434;50.096;20.082;2022-12-24T01:36:46;4.22;85.56
67641;SHT31;54434;50.096;20.082;2022-12-24T01:39:23;4.17;85.64
67641;SHT31;54434;50.096;20.082;2022-12-24T01:41:59;4.18;85.54
67641;SHT31;54434;50.096;20.082;2022-12-24T01:48:29;4.10;86.22
67641;SHT31;54434;50.096;20.082;2022-12-24T01:51:16;4.19;86.27
67641;SHT31;54434;50.096;20.082;2022-12-24T01:54:04;4.22;86.06
67641;SHT31;54434;50.096;20.082;2022-12-24T01:56:48;4.19;85.89
67641;SHT31;54434;50.096;20.082;2022-12-24T01:59:28;4.14;85.94
67641;SHT31;54434;50.096;20.082;2022-12-24T02:02:06;4.18;86.32
67641;SHT31;54434;50.096;20.082;2022-12-24T02:04:45;4.21;86.25
67641;SHT31;54434;50.096;20.082;2022-12-24T02:07:30;4.22;86.12
67641;SHT31;54434;50.096;20.082;2022-12-24T02:10:11;4.23;86.13
67641;SHT31;54434;50.096;20.082;2022-12-24T02:12:48;4.22;85.93
67641;SHT31;54434;50.096;20.082;2022-12-24T02:15:25;4.21;86.05
67641;SHT31;54434;50.096;20.082;2022-12-24T02:18:19;4.16;86.06
67641;SHT31;54434;50.096;20.082;2022-12-24T02:24:57;4.28;87.12
67641;SHT31;54434;50.096;20.082;2022-12-24T02:27:56;4.31;87.02
67641;SHT31;54434;50.096;20.082;2022-12-24T02:30:44;4.28;86.94
67641;SHT31;54434;50.096;20.082;2022-12-24T02:33:29;4.31;86.89
67641;SHT31;54434;50.096;20.082;2022-12-24T02:36:19;4.28;86.71
67641;SHT31;54434;50.096;20.082;2022-12-24T02:39:02;4.28;86.64
67641;SHT31;54434;50.096;20.082;2022-12-24T02:41:49;4.24;86.53
67641;SHT31;54434;50.096;20.082;2022-12-24T02:44:41;4.23;86.55
67641;SHT31;54434;50.096;20.082;2022-12-24T02:47:20;4.20;86.50
67641;SHT31;54434;50.096;20.082;2022-12-24T02:50:07;4.14;86.50
67641;SHT31;54434;50.096;20.082;2022-12-24T02:52:50;4.16;86.70
67641;SHT31;54434;50.096;20.082;2022-12-24T02:55:31;4.17;86.67
67641;SHT31;54434;50.096;20.082;2022-12-24T02:58:24;4.16;86.57
67641;SHT31;54434;50.096;20.082;2022-12-24T03:01:21;4.13;86.48
67641;SHT31;54434;50.096;20.082;2022-12-24T03:04:18;4.14;86.48
67641;SHT31;54434;50.096;20.082;2022-12-24T03:07:16;4.13;86.34
67641;SHT31;54434;50.096;20.082;2022-12-24T03:10:14;4.09;86.24
67641;SHT31;54434;50.096;20.082;2022-12-24T03:13:00;4.07;86.38
67641;SHT31;54434;50.096;20.082;2022-12-24T03:15:42;4.02;86.20
67641;SHT31;54434;50.096;20.082;2022-12-24T03:18:24;3.98;86.09
67641;SHT31;54434;50.096;20.082;2022-12-24T03:21:04;3.94;86.27
67641;SHT31;54434;50.096;20.082;2022-12-24T03:23:48;3.93;86.56
67641;SHT31;54434;50.096;20.082;2022-12-24T03:26:24;3.94;86.63
67641;SHT31;54434;50.096;20.082;2022-12-24T03:29:04;3.94;86.64
67641;SHT31;54434;50.096;20.082;2022-12-24T03:31:44;3.92;86.69
67641;SHT31;54434;50.096;20.082;2022-12-24T03:34:22;3.95;87.11
67641;SHT31;54434;50.096;20.082;2022-12-24T03:36:59;3.99;87.26
67641;SHT31;54434;50.096;20.082;2022-12-24T03:39:35;3.96;87.13
67641;SHT31;54434;50.096;20.082;2022-12-24T03:42:12;3.97;87.37
67641;SHT31;54434;50.096;20.082;2022-12-24T03:44:48;4.01;87.55
67641;SHT31;54434;50.096;20.082;2022-12-24T03:47:24;4.04;87.55
67641;SHT31;54434;50.096;20.082;2022-12-24T03:50:02;4.04;87.22
67641;SHT31;54434;50.096;20.082;2022-12-24T03:52:40;4.04;87.18
67641;SHT31;54434;50.096;20.082;2022-12-24T03:55:16;4.02;87.28
67641;SHT31;54434;50.096;20.082;2022-12-24T03:57:53;4.02;87.38
67641;SHT31;54434;50.096;20.082;2022-12-24T04:00:29;4.01;87.36
67641;SHT31;54434;50.096;20.082;2022-12-24T04:03:05;4.03;87.22
67641;SHT31;54434;50.096;20.082;2022-12-24T04:05:42;3.99;86.99
67641;SHT31;54434;50.096;20.082;2022-12-24T04:08:18;3.97;86.97
67641;SHT31;54434;50.096;20.082;2022-12-24T04:10:54;3.96;86.98
67641;SHT31;54434;50.096;20.082;2022-12-24T04:13:40;4.01;87.19
67641;SHT31;54434;50.096;20.082;2022-12-24T04:16:16;4.05;87.30
67641;SHT31;54434;50.096;20.082;2022-12-24T04:18:53;4.10;87.31
67641;SHT31;54434;50.096;20.082;2022-12-24T04:21:29;4.11;87.38
67641;SHT31;54434;50.096;20.082;2022-12-24T04:24:06;4.11;87.53
67641;SHT31;54434;50.096;20.082;2022-12-24T04:26:42;4.12;87.45
67641;SHT31;54434;50.096;20.082;2022-12-24T04:29:19;4.08;87.47
67641;SHT31;54434;50.096;20.082;2022-12-24T04:31:55;4.08;87.43
67641;SHT31;54434;50.096;20.082;2022-12-24T04:34:31;4.10;87.53
67641;SHT31;54434;50.096;20.082;2022-12-24T04:37:08;4.13;87.45
67641;SHT31;54434;50.096;20.082;2022-12-24T04:39:45;4.14;87.53
67641;SHT31;54434;50.096;20.082;2022-12-24T04:42:21;4.14;87.45
67641;SHT31;54434;50.096;20.082;2022-12-24T04:44:57;4.13;87.40
67641;SHT31;54434;50.096;20.082;2022-12-24T04:47:33;4.11;87.45
67641;SHT31;54434;50.096;20.082;2022-12-24T04:50:11;4.11;87.51
67641;SHT31;54434;50.096;20.082;2022-12-24T04:52:47;4.12;87.53
67641;SHT31;54434;50.096;20.082;2022-12-24T04:55:24;4.12;87.58
67641;SHT31;54434;50.096;20.082;2022-12-24T04:58:00;4.13;87.68
67641;SHT31;54434;50.096;20.082;2022-12-24T05:00:36;4.11;87.66
67641;SHT31;54434;50.096;20.082;2022-12-24T05:03:13;4.10;87.64
67641;SHT31;54434;50.096;20.082;2022-12-24T05:05:49;4.09;87.58
67641;SHT31;54434;50.096;20.082;2022-12-24T05:08:32;4.08;87.60
67641;SHT31;54434;50.096;20.082;2022-12-24T05:11:11;4.06;87.54
67641;SHT31;54434;50.096;20.082;2022-12-24T05:13:48;4.05;87.59
67641;SHT31;54434;50.096;20.082;2022-12-24T05:16:25;4.05;87.54
67641;SHT31;54434;50.096;20.082;2022-12-24T05:19:01;4.02;87.63
67641;SHT31;54434;50.096;20.082;2022-12-24T05:21:38;4.03;87.61
67641;SHT31;54434;50.096;20.082;2022-12-24T05:24:14;4.03;87.67
67641;SHT31;54434;50.096;20.082;2022-12-24T05:27:08;4.01;87.71
67641;SHT31;54434;50.096;20.082;2022-12-24T05:29:44;4.01;87.87
67641;SHT31;54434;50.096;20.082;2022-12-24T05:32:21;3.99;87.94
67641;SHT31;54434;50.096;20.082;2022-12-24T05:34:59;3.99;88.05
67641;SHT31;54434;50.096;20.082;2022-12-24T05:37:36;3.99;88.19
67641;SHT31;54434;50.096;20.082;2022-12-24T05:40:13;3.99;88.34
67641;SHT31;54434;50.096;20.082;2022-12-24T05:42:50;3.97;88.46
67641;SHT31;54434;50.096;20.082;2022-12-24T05:45:26;3.96;88.69
67641;SHT31;54434;50.096;20.082;2022-12-24T05:48:04;3.93;88.84
67641;SHT31;54434;50.096;20.082;2022-12-24T05:50:40;3.95;88.89
67641;SHT31;54434;50.096;20.082;2022-12-24T05:53:17;3.98;88.88
67641;SHT31;54434;50.096;20.082;2022-12-24T05:55:53;4.01;89.11
67641;SHT31;54434;50.096;20.082;2022-12-24T05:58:36;4.08;89.39
67641;SHT31;54434;50.096;20.082;2022-12-24T06:01:14;4.16;89.81
67641;SHT31;54434;50.096;20.082;2022-12-24T06:03:52;4.25;90.09
67641;SHT31;54434;50.096;20.082;2022-12-24T06:06:29;4.36;90.48
67641;SHT31;54434;50.096;20.082;2022-12-24T06:09:06;4.45;90.52
67641;SHT31;54434;50.096;20.082;2022-12-24T06:11:43;4.55;90.84
67641;SHT31;54434;50.096;20.082;2022-12-24T06:14:19;4.69;91.04
67641;SHT31;54434;50.096;20.082;2022-12-24T06:16:56;4.84;91.22
67641;SHT31;54434;50.096;20.082;2022-12-24T06:19:32;4.97;91.29
67641;SHT31;54434;50.096;20.082;2022-12-24T06:22:08;5.08;91.39
67641;SHT31;54434;50.096;20.082;2022-12-24T06:24:45;5.18;91.42
67641;SHT31;54434;50.096;20.082;2022-12-24T06:27:22;5.26;91.37
67641;SHT31;54434;50.096;20.082;2022-12-24T06:29:59;5.34;91.34
67641;SHT31;54434;50.096;20.082;2022-12-24T06:32:36;5.40;91.31
67641;SHT31;54434;50.096;20.082;2022-12-24T06:35:12;5.48;91.30
67641;SHT31;54434;50.096;20.082;2022-12-24T06:37:48;5.55;91.36
67641;SHT31;54434;50.096;20.082;2022-12-24T06:40:25;5.61;91.29
67641;SHT31;54434;50.096;20.082;2022-12-24T06:43:04;5.69;91.29
67641;SHT31;54434;50.096;20.082;2022-12-24T06:45:42;5.74;91.13
67641;SHT31;54434;50.096;20.082;2022-12-24T06:48:20;5.78;91.01
67641;SHT31;54434;50.096;20.082;2022-12-24T06:50:56;5.83;90.97
67641;SHT31;54434;50.096;20.082;2022-12-24T06:53:35;5.88;90.89
67641;SHT31;54434;50.096;20.082;2022-12-24T06:56:12;5.89;90.80
67641;SHT31;54434;50.096;20.082;2022-12-24T06:58:49;5.93;90.76
67641;SHT31;54434;50.096;20.082;2022-12-24T07:01:33;5.96;90.60
67641;SHT31;54434;50.096;20.082;2022-12-24T07:04:10;5.97;90.42
67641;SHT31;54434;50.096;20.082;2022-12-24T07:06:51;5.98;90.28
67641;SHT31;54434;50.096;20.082;2022-12-24T07:09:27;5.97;90.17
67641;SHT31;54434;50.096;20.082;2022-12-24T07:12:05;5.99;90.24
67641;SHT31;54434;50.096;20.082;2022-12-24T07:14:41;6.02;90.15
67641;SHT31;54434;50.096;20.082;2022-12-24T07:17:18;6.05;90.09
67641;SHT31;54434;50.096;20.082;2022-12-24T07:19:54;6.11;89.99
67641;SHT31;54434;50.096;20.082;2022-12-24T07:22:31;6.13;89.85
67641;SHT31;54434;50.096;20.082;2022-12-24T07:25:09;6.14;89.78
67641;SHT31;54434;50.096;20.082;2022-12-24T07:27:46;6.16;89.75
67641;SHT31;54434;50.096;20.082;2022-12-24T07:30:23;6.18;89.64
67641;SHT31;54434;50.096;20.082;2022-12-24T07:32:59;6.22;89.64
67641;SHT31;54434;50.096;20.082;2022-12-24T07:35:35;6.29;89.57
67641;SHT31;54434;50.096;20.082;2022-12-24T07:38:12;6.36;89.48
67641;SHT31;54434;50.096;20.082;2022-12-24T07:40:48;6.45;89.41
67641;SHT31;54434;50.096;20.082;2022-12-24T07:43:25;6.51;89.29
67641;SHT31;54434;50.096;20.082;2022-12-24T07:46:01;6.55;89.10
67641;SHT31;54434;50.096;20.082;2022-12-24T07:48:38;6.58;88.98
67641;SHT31;54434;50.096;20.082;2022-12-24T07:51:14;6.57;88.80
67641;SHT31;54434;50.096;20.082;2022-12-24T07:53:51;6.60;88.72
67641;SHT31;54434;50.096;20.082;2022-12-24T07:56:27;6.62;88.68
67641;SHT31;54434;50.096;20.082;2022-12-24T07:59:04;6.62;88.55
67641;SHT31;54434;50.096;20.082;2022-12-24T08:01:41;6.61;88.44
67641;SHT31;54434;50.096;20.082;2022-12-24T08:04:18;6.61;88.38
67641;SHT31;54434;50.096;20.082;2022-12-24T08:06:55;6.59;88.38
67641;SHT31;54434;50.096;20.082;2022-12-24T08:09:34;6.61;88.48
67641;SHT31;54434;50.096;20.082;2022-12-24T08:12:11;6.65;88.41
67641;SHT31;54434;50.096;20.082;2022-12-24T08:14:47;6.68;88.37
67641;SHT31;54434;50.096;20.082;2022-12-24T08:17:23;6.72;88.29
67641;SHT31;54434;50.096;20.082;2022-12-24T08:20:03;6.76;88.13
67641;SHT31;54434;50.096;20.082;2022-12-24T08:22:42;6.77;87.95
67641;SHT31;54434;50.096;20.082;2022-12-24T08:25:19;6.73;87.88
67641;SHT31;54434;50.096;20.082;2022-12-24T08:27:55;6.74;88.14
67641;SHT31;54434;50.096;20.082;2022-12-24T08:30:32;6.79;88.12
67641;SHT31;54434;50.096;20.082;2022-12-24T08:33:08;6.83;88.15
67641;SHT31;54434;50.096;20.082;2022-12-24T08:35:49;6.88;88.27
67641;SHT31;54434;50.096;20.082;2022-12-24T08:38:27;6.99;88.27
67641;SHT31;54434;50.096;20.082;2022-12-24T08:41:04;7.09;88.24
67641;SHT31;54434;50.096;20.082;2022-12-24T08:43:41;7.17;88.01
67641;SHT31;54434;50.096;20.082;2022-12-24T08:46:17;7.28;87.93
67641;SHT31;54434;50.096;20.082;2022-12-24T08:48:54;7.36;87.74
67641;SHT31;54434;50.096;20.082;2022-12-24T08:51:30;7.44;87.53
67641;SHT31;54434;50.096;20.082;2022-12-24T08:54:07;7.51;87.41
67641;SHT31;54434;50.096;20.082;2022-12-24T08:56:43;7.55;87.14
67641;SHT31;54434;50.096;20.082;2022-12-24T08:59:20;7.58;87.11
67641;SHT31;54434;50.096;20.082;2022-12-24T09:01:56;7.63;87.04
67641;SHT31;54434;50.096;20.082;2022-12-24T09:04:33;7.70;86.95
67641;SHT31;54434;50.096;20.082;2022-12-24T09:07:13;7.83;86.74
67641;SHT31;54434;50.096;20.082;2022-12-24T09:09:49;7.99;86.50
67641;SHT31;54434;50.096;20.082;2022-12-24T09:12:25;8.20;86.21
67641;SHT31;54434;50.096;20.082;2022-12-24T09:15:03;8.45;85.90
67641;SHT31;54434;50.096;20.082;2022-12-24T09:17:42;8.68;85.40
67641;SHT31;54434;50.096;20.082;2022-12-24T09:20:18;8.86;84.69
67641;SHT31;54434;50.096;20.082;2022-12-24T09:22:55;8.99;84.06
67641;SHT31;54434;50.096;20.082;2022-12-24T09:25:31;9.07;83.81
67641;SHT31;54434;50.096;20.082;2022-12-24T09:28:07;9.14;83.21
67641;SHT31;54434;50.096;20.082;2022-12-24T09:30:44;9.14;83.00
67641;SHT31;54434;50.096;20.082;2022-12-24T09:33:30;9.19;83.00
67641;SHT31;54434;50.096;20.082;2022-12-24T09:36:09;9.25;82.56
67641;SHT31;54434;50.096;20.082;2022-12-24T09:38:46;9.32;82.46
67641;SHT31;54434;50.096;20.082;2022-12-24T09:41:32;9.34;81.72
67641;SHT31;54434;50.096;20.082;2022-12-24T09:44:30;9.34;81.58
67641;SHT31;54434;50.096;20.082;2022-12-24T09:47:19;9.34;81.65
67641;SHT31;54434;50.096;20.082;2022-12-24T09:50:08;9.33;81.56
67641;SHT31;54434;50.096;20.082;2022-12-24T09:53:14;9.28;81.52
67641;SHT31;54434;50.096;20.082;2022-12-24T09:55:59;9.21;81.53
67641;SHT31;54434;50.096;20.082;2022-12-24T09:58:44;9.15;81.62
67641;SHT31;54434;50.096;20.082;2022-12-24T10:01:29;9.10;81.68
67641;SHT31;54434;50.096;20.082;2022-12-24T10:04:10;9.07;81.70
67641;SHT31;54434;50.096;20.082;2022-12-24T10:06:51;9.04;81.85
67641;SHT31;54434;50.096;20.082;2022-12-24T10:09:39;8.98;81.91
67641;SHT31;54434;50.096;20.082;2022-12-24T10:12:24;8.95;82.04
67641;SHT31;54434;50.096;20.082;2022-12-24T10:15:13;8.91;82.05
67641;SHT31;54434;50.096;20.082;2022-12-24T10:18:09;8.84;81.90
67641;SHT31;54434;50.096;20.082;2022-12-24T10:21:02;8.73;82.12
67641;SHT31;54434;50.096;20.082;2022-12-24T10:23:49;8.64;82.32
67641;SHT31;54434;50.096;20.082;2022-12-24T10:26:38;8.53;82.59
67641;SHT31;54434;50.096;20.082;2022-12-24T10:29:23;8.41;82.95
67641;SHT31;54434;50.096;20.082;2022-12-24T10:32:14;8.32;83.24
67641;SHT31;54434;50.096;20.082;2022-12-24T10:34:58;8.24;83.45
67641;SHT31;54434;50.096;20.082;2022-12-24T10:37:40;8.16;83.59
67641;SHT31;54434;50.096;20.082;2022-12-24T10:40:27;8.10;83.78
67641;SHT31;54434;50.096;20.082;2022-12-24T10:43:13;8.05;83.91
67641;SHT31;54434;50.096;20.082;2022-12-24T10:45:54;8.05;83.89
67641;SHT31;54434;50.096;20.082;2022-12-24T10:48:39;8.06;83.83
67641;SHT31;54434;50.096;20.082;2022-12-24T10:51:24;8.09;83.80
67641;SHT31;54434;50.096;20.082;2022-12-24T10:54:14;8.15;83.72
67641;SHT31;54434;50.096;20.082;2022-12-24T10:56:58;8.23;83.55
67641;SHT31;54434;50.096;20.082;2022-12-24T10:59:40;8.29;83.24
67641;SHT31;54434;50.096;20.082;2022-12-24T11:02:28;8.36;83.05
67641;SHT31;54434;50.096;20.082;2022-12-24T11:05:26;8.43;82.87
67641;SHT31;54434;50.096;20.082;2022-12-24T11:08:16;8.47;82.54
67641;SHT31;54434;50.096;20.082;2022-12-24T11:10:56;8.57;82.55
67641;SHT31;54434;50.096;20.082;2022-12-24T11:13:37;8.69;82.02
67641;SHT31;54434;50.096;20.082;2022-12-24T11:16:21;8.79;81.88
67641;SHT31;54434;50.096;20.082;2022-12-24T11:19:03;8.89;81.41
67641;SHT31;54434;50.096;20.082;2022-12-24T11:21:54;8.98;80.99
67641;SHT31;54434;50.096;20.082;2022-12-24T11:24:37;9.08;80.79
67641;SHT31;54434;50.096;20.082;2022-12-24T11:27:28;9.14;80.31
67641;SHT31;54434;50.096;20.082;2022-12-24T11:30:31;9.19;80.31
67641;SHT31;54434;50.096;20.082;2022-12-24T11:33:20;9.22;80.00
67641;SHT31;54434;50.096;20.082;2022-12-24T11:36:05;9.16;80.06
67641;SHT31;54434;50.096;20.082;2022-12-24T11:38:47;9.06;80.18
67641;SHT31;54434;50.096;20.082;2022-12-24T11:41:34;8.95;80.48
67641;SHT31;54434;50.096;20.082;2022-12-24T11:44:11;8.91;80.83
67641;SHT31;54434;50.096;20.082;2022-12-24T11:46:55;8.86;81.05
67641;SHT31;54434;50.096;20.082;2022-12-24T11:49:34;8.79;81.26
67641;SHT31;54434;50.096;20.082;2022-12-24T11:52:18;8.70;81.57
67641;SHT31;54434;50.096;20.082;2022-12-24T11:55:11;8.64;81.72
67641;SHT31;54434;50.096;20.082;2022-12-24T11:57:59;8.57;81.84
67641;SHT31;54434;50.096;20.082;2022-12-24T12:00:48;8.55;81.87
67641;SHT31;54434;50.096;20.082;2022-12-24T12:03:37;8.59;81.77
67641;SHT31;54434;50.096;20.082;2022-12-24T12:06:29;8.60;81.61
67641;SHT31;54434;50.096;20.082;2022-12-24T12:09:15;8.61;81.43
67641;SHT31;54434;50.096;20.082;2022-12-24T12:11:58;8.59;81.45
67641;SHT31;54434;50.096;20.082;2022-12-24T12:14:49;8.59;81.49
67641;SHT31;54434;50.096;20.082;2022-12-24T12:17:33;8.58;81.65
67641;SHT31;54434;50.096;20.082;2022-12-24T12:20:17;8.57;81.75
67641;SHT31;54434;50.096;20.082;2022-12-24T12:22:59;8.56;81.96
67641;SHT31;54434;50.096;20.082;2022-12-24T12:25:51;8.53;82.12
67641;SHT31;54434;50.096;20.082;2022-12-24T12:28:36;8.49;82.15
67641;SHT31;54434;50.096;20.082;2022-12-24T12:31:20;8.43;82.28
67641;SHT31;54434;50.096;20.082;2022-12-24T12:34:06;8.38;82.45
67641;SHT31;54434;50.096;20.082;2022-12-24T12:36:50;8.33;82.91
67641;SHT31;54434;50.096;20.082;2022-12-24T12:39:31;8.29;83.10
67641;SHT31;54434;50.096;20.082;2022-12-24T12:42:13;8.25;83.28
67641;SHT31;54434;50.096;20.082;2022-12-24T12:45:35;8.26;83.34
67641;SHT31;54434;50.096;20.082;2022-12-24T12:48:45;8.28;83.30
67641;SHT31;54434;50.096;20.082;2022-12-24T12:51:36;8.26;83.36
67641;SHT31;54434;50.096;20.082;2022-12-24T12:54:34;8.23;83.53
67641;SHT31;54434;50.096;20.082;2022-12-24T12:57:25;8.16;83.71
67641;SHT31;54434;50.096;20.082;2022-12-24T13:00:11;8.12;83.91
67641;SHT31;54434;50.096;20.082;2022-12-24T13:03:01;8.10;83.92
67641;SHT31;54434;50.096;20.082;2022-12-24T13:06:32;8.05;84.00
67641;SHT31;54434;50.096;20.082;2022-12-24T13:09:38;7.98;84.16
67641;SHT31;54434;50.096;20.082;2022-12-24T13:12:53;7.95;84.36
67641;SHT31;54434;50.096;20.082;2022-12-24T13:16:01;7.91;84.49
67641;SHT31;54434;50.096;20.082;2022-12-24T13:19:11;7.89;84.48
67641;SHT31;54434;50.096;20.082;2022-12-24T13:22:15;7.90;84.47
67641;SHT31;54434;50.096;20.082;2022-12-24T13:24:55;7.95;84.42
67641;SHT31;54434;50.096;20.082;2022-12-24T13:27:32;7.99;84.39
67641;SHT31;54434;50.096;20.082;2022-12-24T13:30:33;8.01;84.42
67641;SHT31;54434;50.096;20.082;2022-12-24T13:33:12;8.02;84.34
67641;SHT31;54434;50.096;20.082;2022-12-24T13:36:20;8.06;84.25
67641;SHT31;54434;50.096;20.082;2022-12-24T13:38:57;8.05;84.28
67641;SHT31;54434;50.096;20.082;2022-12-24T13:41:56;8.06;84.23
67641;SHT31;54434;50.096;20.082;2022-12-24T13:44:32;8.04;84.44
67641;SHT31;54434;50.096;20.082;2022-12-24T13:47:22;8.04;84.65
67641;SHT31;54434;50.096;20.082;2022-12-24T13:50:20;7.99;84.95
67641;SHT31;54434;50.096;20.082;2022-12-24T13:53:21;7.97;85.04
67641;SHT31;54434;50.096;20.082;2022-12-24T13:56:06;7.93;85.28
67641;SHT31;54434;50.096;20.082;2022-12-24T13:59:11;7.93;85.32
67641;SHT31;54434;50.096;20.082;2022-12-24T14:02:18;7.91;85.29
67641;SHT31;54434;50.096;20.082;2022-12-24T14:04:56;7.90;85.20
67641;SHT31;54434;50.096;20.082;2022-12-24T14:07:42;7.83;85.29
67641;SHT31;54434;50.096;20.082;2022-12-24T14:10:23;7.79;85.66
67641;SHT31;54434;50.096;20.082;2022-12-24T14:17:02;7.73;85.76
67641;SHT31;54434;50.096;20.082;2022-12-24T14:19:55;7.70;85.95
67641;SHT31;54434;50.096;20.082;2022-12-24T14:22:35;7.67;86.02
67641;SHT31;54434;50.096;20.082;2022-12-24T14:25:17;7.64;86.21
67641;SHT31;54434;50.096;20.082;2022-12-24T14:27:57;7.59;86.51
67641;SHT31;54434;50.096;20.082;2022-12-24T14:30:43;7.53;86.78
67641;SHT31;54434;50.096;20.082;2022-12-24T14:33:35;7.46;86.96
67641;SHT31;54434;50.096;20.082;2022-12-24T14:36:11;7.43;87.25
67641;SHT31;54434;50.096;20.082;2022-12-24T14:38:53;7.36;87.34
67641;SHT31;54434;50.096;20.082;2022-12-24T14:41:38;7.31;87.40
67641;SHT31;54434;50.096;20.082;2022-12-24T14:44:26;7.25;87.61
67641;SHT31;54434;50.096;20.082;2022-12-24T14:47:20;7.24;87.74
67641;SHT31;54434;50.096;20.082;2022-12-24T14:50:27;7.22;87.79
67641;SHT31;54434;50.096;20.082;2022-12-24T14:53:40;7.16;87.87
67641;SHT31;54434;50.096;20.082;2022-12-24T14:56:42;7.16;87.95
67641;SHT31;54434;50.096;20.082;2022-12-24T14:59:19;7.14;87.97
67641;SHT31;54434;50.096;20.082;2022-12-24T15:01:57;7.10;88.06
67641;SHT31;54434;50.096;20.082;2022-12-24T15:05:19;7.07;88.09
67641;SHT31;54434;50.096;20.082;2022-12-24T15:08:02;7.05;88.11
67641;SHT31;54434;50.096;20.082;2022-12-24T15:10:51;7.02;88.24
67641;SHT31;54434;50.096;20.082;2022-12-24T15:13:35;7.01;88.32
67641;SHT31;54434;50.096;20.082;2022-12-24T15:16:20;7.02;88.55
67641;SHT31;54434;50.096;20.082;2022-12-24T15:19:04;7.02;88.55
67641;SHT31;54434;50.096;20.082;2022-12-24T15:21:52;7.02;88.49
67641;SHT31;54434;50.096;20.082;2022-12-24T15:24:30;7.01;88.54
67641;SHT31;54434;50.096;20.082;2022-12-24T15:27:15;7.02;88.58
67641;SHT31;54434;50.096;20.082;2022-12-24T15:29:54;7.01;88.58
67641;SHT31;54434;50.096;20.082;2022-12-24T15:32:37;7.03;88.53
67641;SHT31;54434;50.096;20.082;2022-12-24T15:35:34;7.01;88.45
67641;SHT31;54434;50.096;20.082;2022-12-24T15:38:28;7.01;88.41
67641;SHT31;54434;50.096;20.082;2022-12-24T15:41:14;7.00;88.45
67641;SHT31;54434;50.096;20.082;2022-12-24T15:43:58;7.00;88.43
67641;SHT31;54434;50.096;20.082;2022-12-24T15:46:36;7.00;88.32
67641;SHT31;54434;50.096;20.082;2022-12-24T15:49:14;7.00;88.29
67641;SHT31;54434;50.096;20.082;2022-12-24T15:51:51;7.01;88.35
67641;SHT31;54434;50.096;20.082;2022-12-24T15:54:38;6.97;88.24
67641;SHT31;54434;50.096;20.082;2022-12-24T15:57:28;6.94;88.29
67641;SHT31;54434;50.096;20.082;2022-12-24T16:00:21;6.90;88.33
67641;SHT31;54434;50.096;20.082;2022-12-24T16:03:15;6.86;88.45
67641;SHT31;54434;50.096;20.082;2022-12-24T16:06:01;6.86;88.61
67641;SHT31;54434;50.096;20.082;2022-12-24T16:08:39;6.85;88.67
67641;SHT31;54434;50.096;20.082;2022-12-24T16:11:18;6.87;88.77
67641;SHT31;54434;50.096;20.082;2022-12-24T16:14:09;6.87;88.84
67641;SHT31;54434;50.096;20.082;2022-12-24T16:16:51;6.86;88.79
67641;SHT31;54434;50.096;20.082;2022-12-24T16:19:30;6.85;88.98
67641;SHT31;54434;50.096;20.082;2022-12-24T16:22:11;6.88;89.05
67641;SHT31;54434;50.096;20.082;2022-12-24T16:27:56;6.91;88.92
67641;SHT31;54434;50.096;20.082;2022-12-24T16:30:40;6.91;88.82
67641;SHT31;54434;50.096;20.082;2022-12-24T16:33:18;6.91;88.75
67641;SHT31;54434;50.096;20.082;2022-12-24T16:35:55;6.91;88.68
67641;SHT31;54434;50.096;20.082;2022-12-24T16:38:32;6.90;88.78
67641;SHT31;54434;50.096;20.082;2022-12-24T16:41:29;6.92;88.73
67641;SHT31;54434;50.096;20.082;2022-12-24T16:44:26;6.93;88.60
67641;SHT31;54434;50.096;20.082;2022-12-24T16:47:03;6.95;88.56
67641;SHT31;54434;50.096;20.082;2022-12-24T16:49:46;6.94;88.50
67641;SHT31;54434;50.096;20.082;2022-12-24T16:52:23;6.96;88.56
67641;SHT31;54434;50.096;20.082;2022-12-24T16:55:05;6.97;88.51
67641;SHT31;54434;50.096;20.082;2022-12-24T16:57:44;6.99;88.52
67641;SHT31;54434;50.096;20.082;2022-12-24T17:00:22;7.04;88.47
67641;SHT31;54434;50.096;20.082;2022-12-24T17:02:59;7.07;88.28
67641;SHT31;54434;50.096;20.082;2022-12-24T17:05:37;7.07;88.15
67641;SHT31;54434;50.096;20.082;2022-12-24T17:08:15;7.10;88.10
67641;SHT31;54434;50.096;20.082;2022-12-24T17:10:52;7.10;87.96
67641;SHT31;54434;50.096;20.082;2022-12-24T17:13:28;7.12;87.85
67641;SHT31;54434;50.096;20.082;2022-12-24T17:16:06;7.14;87.91
67641;SHT31;54434;50.096;20.082;2022-12-24T17:18:43;7.15;87.86
67641;SHT31;54434;50.096;20.082;2022-12-24T17:21:21;7.16;87.87